sensor_id;sensor_type;location;lat;lon;timestamp;temperature;humidity
10530;DHT22;5313;48.834;9.228;2023-06-24T00:02:16;17.70;99.90
10530;DHT22;5313;48.834;9.228;2023-06-24T00:04:42;17.30;99.90
10530;DHT22;5313;48.834;9.228;2023-06-24T00:07:07;17.50;99.90
10530;DHT22;5313;48.834;9.228;2023-06-24T00:09:33;17.90;99.90
10530;DHT22;5313;48.834;9.228;2023-06-24T00:11:59;18.40;99.90
10530;DHT22;5313;48.834;9.228;2023-06-24T00:14:25;18.00;99.90
10530;DHT22;5313;48.834;9.228;2023-06-24T00:16:52;17.60;99.90
10530;DHT22;5313;48.834;9.228;2023-06-24T00:19:23;17.50;99.90
10530;DHT22;5313;48.834;9.228;2023-06-24T00:21:49;17.60;99.90
10530;DHT22;5313;48.834;9.228;2023-06-24T00:24:21;17.90;99.90
10530;DHT22;5313;48.834;9.228;2023-06-24T00:26:54;18.30;99.90
10530;DHT22;5313;48.834;9.228;2023-06-24T00:29:20;18.10;99.90
10530;DHT22;5313;48.834;9.228;2023-06-24T00:31:46;17.80;99.90
10530;DHT22;5313;48.834;9.228;2023-06-24T00:34:12;17.70;99.90
10530;DHT22;5313;48.834;9.228;2023-06-24T00:36:37;17.80;99.90
10530;DHT22;5313;48.834;9.228;2023-06-24T00:39:04;18.00;99.90
10530;DHT22;5313;48.834;9.228;2023-06-24T00:41:31;18.00;99.90
10530;DHT22;5313;48.834;9.228;2023-06-24T00:43:57;17.60;99.90
10530;DHT22;5313;48.834;9.228;2023-06-24T00:46:24;17.20;99.90
10530;DHT22;5313;48.834;9.228;2023-06-24T00:48:52;17.80;99.90
10530;DHT22;5313;48.834;9.228;2023-06-24T00:51:17;18.10;99.90
10530;DHT22;5313;48.834;9.228;2023-06-24T00:53:47;17.80;99.90
10530;DHT22;5313;48.834;9.228;2023-06-24T00:56:14;17.60;99.90
10530;DHT22;5313;48.834;9.228;2023-06-24T00:58:42;18.30;99.90
10530;DHT22;5313;48.834;9.228;2023-06-24T01:01:09;18.50;99.90
10530;DHT22;5313;48.834;9.228;2023-06-24T01:03:36;18.50;99.90
10530;DHT22;5313;48.834;9.228;2023-06-24T01:06:02;18.30;99.90
10530;DHT22;5313;48.834;9.228;2023-06-24T01:08:28;18.40;99.90
10530;DHT22;5313;48.834;9.228;2023-06-24T01:10:53;18.40;99.90
10530;DHT22;5313;48.834;9.228;2023-06-24T01:13:19;18.60;99.90
10530;DHT22;5313;48.834;9.228;2023-06-24T01:15:45;18.80;99.90
10530;DHT22;5313;48.834;9.228;2023-06-24T01:18:35;18.50;99.90
10530;DHT22;5313;48.834;9.228;2023-06-24T01:21:10;18.30;99.90
10530;DHT22;5313;48.834;9.228;2023-06-24T01:26:48;18.50;99.90
10530;DHT22;5313;48.834;9.228;2023-06-24T01:32:08;17.80;99.90
10530;DHT22;5313;48.834;9.228;2023-06-24T01:34:37;17.60;99.90
10530;DHT22;5313;48.834;9.228;2023-06-24T01:37:10;17.40;99.90
10530;DHT22;5313;48.834;9.228;2023-06-24T01:39:44;17.20;99.90
10530;DHT22;5313;48.834;9.228;2023-06-24T01:42:12;17.90;99.90
10530;DHT22;5313;48.834;9.228;2023-06-24T01:44:40;18.60;99.90
10530;DHT22;5313;48.834;9.228;2023-06-24T01:47:08;18.30;99.90
10530;DHT22;5313;48.834;9.228;2023-06-24T01:49:39;18.10;99.90
10530;DHT22;5313;48.834;9.228;2023-06-24T01:52:08;18.10;99.90
10530;DHT22;5313;48.834;9.228;2023-06-24T01:54:36;18.60;99.90
10530;DHT22;5313;48.834;9.228;2023-06-24T01:57:02;18.00;99.90
10530;DHT22;5313;48.834;9.228;2023-06-24T01:59:29;17.80;99.90
10530;DHT22;5313;48.834;9.228;2023-06-24T02:01:55;18.10;99.90
10530;DHT22;5313;48.834;9.228;2023-06-24T02:04:23;18.20;99.90
10530;DHT22;5313;48.834;9.228;2023-06-24T02:06:50;18.20;99.90
10530;DHT22;5313;48.834;9.228;2023-06-24T02:09:17;18.30;99.90
10530;DHT22;5313;48.834;9.228;2023-06-24T02:11:44;17.80;99.90
10530;DHT22;5313;48.834;9.228;2023-06-24T02:14:11;17.70;99.90
10530;DHT22;5313;48.834;9.228;2023-06-24T02:16:38;18.20;99.90
10530;DHT22;5313;48.834;9.228;2023-06-24T02:19:08;18.70;99.90
10530;DHT22;5313;48.834;9.228;2023-06-24T02:21:35;18.60;99.90
10530;DHT22;5313;48.834;9.228;2023-06-24T02:24:01;18.40;99.90
10530;DHT22;5313;48.834;9.228;2023-06-24T02:26:27;18.00;99.90
10530;DHT22;5313;48.834;9.228;2023-06-24T02:28:54;18.00;99.90
10530;DHT22;5313;48.834;9.228;2023-06-24T02:31:20;18.10;99.90
10530;DHT22;5313;48.834;9.228;2023-06-24T02:33:46;18.20;99.90
10530;DHT22;5313;48.834;9.228;2023-06-24T02:36:12;17.90;99.90
10530;DHT22;5313;48.834;9.228;2023-06-24T02:38:37;17.60;99.90
10530;DHT22;5313;48.834;9.228;2023-06-24T02:41:03;17.80;99.90
10530;DHT22;5313;48.834;9.228;2023-06-24T02:43:30;17.50;99.90
10530;DHT22;5313;48.834;9.228;2023-06-24T02:45:56;17.30;99.90
10530;DHT22;5313;48.834;9.228;2023-06-24T02:48:22;17.80;99.90
10530;DHT22;5313;48.834;9.228;2023-06-24T02:50:48;17.20;99.90
10530;DHT22;5313;48.834;9.228;2023-06-24T02:53:15;16.90;99.90
10530;DHT22;5313;48.834;9.228;2023-06-24T02:55:41;17.30;99.90
10530;DHT22;5313;48.834;9.228;2023-06-24T02:58:08;17.80;99.90
10530;DHT22;5313;48.834;9.228;2023-06-24T03:00:35;17.80;99.90
10530;DHT22;5313;48.834;9.228;2023-06-24T03:03:02;18.00;99.90
10530;DHT22;5313;48.834;9.228;2023-06-24T03:05:29;17.40;99.90
10530;DHT22;5313;48.834;9.228;2023-06-24T03:07:56;17.00;99.90
10530;DHT22;5313;48.834;9.228;2023-06-24T03:10:23;17.20;99.90
10530;DHT22;5313;48.834;9.228;2023-06-24T03:12:49;17.10;99.90
10530;DHT22;5313;48.834;9.228;2023-06-24T03:15:14;18.10;99.90
10530;DHT22;5313;48.834;9.228;2023-06-24T03:17:40;17.30;99.90
10530;DHT22;5313;48.834;9.228;2023-06-24T03:20:06;17.10;99.90
10530;DHT22;5313;48.834;9.228;2023-06-24T03:22:33;16.90;99.90
10530;DHT22;5313;48.834;9.228;2023-06-24T03:24:58;17.20;99.90
10530;DHT22;5313;48.834;9.228;2023-06-24T03:27:24;17.70;99.90
10530;DHT22;5313;48.834;9.228;2023-06-24T03:29:49;17.70;99.90
10530;DHT22;5313;48.834;9.228;2023-06-24T03:32:15;17.70;99.90
10530;DHT22;5313;48.834;9.228;2023-06-24T03:34:40;17.70;99.90
10530;DHT22;5313;48.834;9.228;2023-06-24T03:37:06;17.60;99.90
10530;DHT22;5313;48.834;9.228;2023-06-24T03:39:32;17.70;99.90
10530;DHT22;5313;48.834;9.228;2023-06-24T03:41:57;17.50;99.90
10530;DHT22;5313;48.834;9.228;2023-06-24T03:44:23;17.40;99.90
10530;DHT22;5313;48.834;9.228;2023-06-24T03:46:48;17.50;99.90
10530;DHT22;5313;48.834;9.228;2023-06-24T03:49:14;17.70;99.90
10530;DHT22;5313;48.834;9.228;2023-06-24T03:51:39;17.00;99.90
10530;DHT22;5313;48.834;9.228;2023-06-24T03:54:05;16.80;99.90
10530;DHT22;5313;48.834;9.228;2023-06-24T03:56:30;17.20;99.90
10530;DHT22;5313;48.834;9.228;2023-06-24T03:58:56;17.60;99.90
10530;DHT22;5313;48.834;9.228;2023-06-24T04:01:21;17.80;99.90
10530;DHT22;5313;48.834;9.228;2023-06-24T04:03:47;17.40;99.90
10530;DHT22;5313;48.834;9.228;2023-06-24T04:06:13;17.40;99.90
10530;DHT22;5313;48.834;9.228;2023-06-24T04:08:38;17.40;99.90
10530;DHT22;5313;48.834;9.228;2023-06-24T04:11:08;17.50;99.90
10530;DHT22;5313;48.834;9.228;2023-06-24T04:13:34;17.50;99.90
10530;DHT22;5313;48.834;9.228;2023-06-24T04:15:59;17.80;99.90
10530;DHT22;5313;48.834;9.228;2023-06-24T04:18:25;18.20;99.90
10530;DHT22;5313;48.834;9.228;2023-06-24T04:20:50;18.10;99.90
10530;DHT22;5313;48.834;9.228;2023-06-24T04:23:16;18.40;99.90
10530;DHT22;5313;48.834;9.228;2023-06-24T04:25:41;18.50;99.90
10530;DHT22;5313;48.834;9.228;2023-06-24T04:28:08;18.50;99.90
10530;DHT22;5313;48.834;9.228;2023-06-24T04:30:34;18.20;99.90
10530;DHT22;5313;48.834;9.228;2023-06-24T04:33:06;18.20;99.90
10530;DHT22;5313;48.834;9.228;2023-06-24T04:35:31;18.10;99.90
10530;DHT22;5313;48.834;9.228;2023-06-24T04:37:57;18.30;99.90
10530;DHT22;5313;48.834;9.228;2023-06-24T04:40:22;18.40;99.90
10530;DHT22;5313;48.834;9.228;2023-06-24T04:42:48;18.30;99.90
10530;DHT22;5313;48.834;9.228;2023-06-24T04:45:14;18.50;99.90
10530;DHT22;5313;48.834;9.228;2023-06-24T04:47:39;18.50;99.90
10530;DHT22;5313;48.834;9.228;2023-06-24T04:50:05;18.90;99.90
10530;DHT22;5313;48.834;9.228;2023-06-24T04:52:31;18.90;99.90
10530;DHT22;5313;48.834;9.228;2023-06-24T04:54:57;19.10;99.90
10530;DHT22;5313;48.834;9.228;2023-06-24T04:57:29;19.20;99.90
10530;DHT22;5313;48.834;9.228;2023-06-24T04:59:56;19.00;99.90
10530;DHT22;5313;48.834;9.228;2023-06-24T05:02:21;18.70;99.90
10530;DHT22;5313;48.834;9.228;2023-06-24T05:04:47;19.20;99.90
10530;DHT22;5313;48.834;9.228;2023-06-24T05:07:13;19.50;99.90
10530;DHT22;5313;48.834;9.228;2023-06-24T05:09:38;19.30;99.90
10530;DHT22;5313;48.834;9.228;2023-06-24T05:12:05;19.20;99.90
10530;DHT22;5313;48.834;9.228;2023-06-24T05:14:30;19.30;99.90
10530;DHT22;5313;48.834;9.228;2023-06-24T05:16:56;19.10;99.90
10530;DHT22;5313;48.834;9.228;2023-06-24T05:19:21;19.10;99.90
10530;DHT22;5313;48.834;9.228;2023-06-24T05:21:47;18.80;99.90
10530;DHT22;5313;48.834;9.228;2023-06-24T05:24:13;19.00;99.90
10530;DHT22;5313;48.834;9.228;2023-06-24T05:26:38;19.20;99.90
10530;DHT22;5313;48.834;9.228;2023-06-24T05:29:04;19.10;99.90
10530;DHT22;5313;48.834;9.228;2023-06-24T05:31:29;19.40;99.90
10530;DHT22;5313;48.834;9.228;2023-06-24T05:33:55;19.40;99.90
10530;DHT22;5313;48.834;9.228;2023-06-24T05:36:20;18.90;99.90
10530;DHT22;5313;48.834;9.228;2023-06-24T05:38:46;19.10;99.90
10530;DHT22;5313;48.834;9.228;2023-06-24T05:41:13;18.90;99.90
10530;DHT22;5313;48.834;9.228;2023-06-24T05:43:39;18.80;99.90
10530;DHT22;5313;48.834;9.228;2023-06-24T05:46:04;19.30;99.90
10530;DHT22;5313;48.834;9.228;2023-06-24T05:48:30;19.60;99.90
10530;DHT22;5313;48.834;9.228;2023-06-24T05:50:55;19.40;99.90
10530;DHT22;5313;48.834;9.228;2023-06-24T05:53:21;19.40;99.90
10530;DHT22;5313;48.834;9.228;2023-06-24T05:55:46;19.30;99.90
10530;DHT22;5313;48.834;9.228;2023-06-24T05:58:12;19.10;99.90
10530;DHT22;5313;48.834;9.228;2023-06-24T06:00:37;19.40;99.90
10530;DHT22;5313;48.834;9.228;2023-06-24T06:03:03;19.60;99.90
10530;DHT22;5313;48.834;9.228;2023-06-24T06:05:28;19.40;99.90
10530;DHT22;5313;48.834;9.228;2023-06-24T06:07:54;19.50;99.90
10530;DHT22;5313;48.834;9.228;2023-06-24T06:10:19;19.70;99.90
10530;DHT22;5313;48.834;9.228;2023-06-24T06:12:45;19.90;99.90
10530;DHT22;5313;48.834;9.228;2023-06-24T06:15:10;19.90;99.90
10530;DHT22;5313;48.834;9.228;2023-06-24T06:17:37;19.80;99.90
10530;DHT22;5313;48.834;9.228;2023-06-24T06:20:02;19.70;99.90
10530;DHT22;5313;48.834;9.228;2023-06-24T06:22:29;19.80;99.90
10530;DHT22;5313;48.834;9.228;2023-06-24T06:24:54;20.00;99.90
10530;DHT22;5313;48.834;9.228;2023-06-24T06:27:20;20.40;99.90
10530;DHT22;5313;48.834;9.228;2023-06-24T06:29:45;20.20;99.90
10530;DHT22;5313;48.834;9.228;2023-06-24T06:32:11;20.20;99.90
10530;DHT22;5313;48.834;9.228;2023-06-24T06:34:36;20.10;99.90
10530;DHT22;5313;48.834;9.228;2023-06-24T06:37:02;20.20;99.90
10530;DHT22;5313;48.834;9.228;2023-06-24T06:39:27;20.50;99.90
10530;DHT22;5313;48.834;9.228;2023-06-24T06:41:53;20.80;99.90
10530;DHT22;5313;48.834;9.228;2023-06-24T06:44:19;20.60;99.90
10530;DHT22;5313;48.834;9.228;2023-06-24T06:46:44;22.20;99.90
10530;DHT22;5313;48.834;9.228;2023-06-24T06:49:10;21.30;99.90
10530;DHT22;5313;48.834;9.228;2023-06-24T06:51:35;21.20;99.90
10530;DHT22;5313;48.834;9.228;2023-06-24T06:54:02;21.50;99.90
10530;DHT22;5313;48.834;9.228;2023-06-24T06:56:28;21.80;99.90
10530;DHT22;5313;48.834;9.228;2023-06-24T06:58:54;21.70;99.90
10530;DHT22;5313;48.834;9.228;2023-06-24T07:01:20;21.80;99.90
10530;DHT22;5313;48.834;9.228;2023-06-24T07:03:46;21.80;99.90
10530;DHT22;5313;48.834;9.228;2023-06-24T07:06:11;21.60;99.90
10530;DHT22;5313;48.834;9.228;2023-06-24T07:08:37;21.40;99.90
10530;DHT22;5313;48.834;9.228;2023-06-24T07:11:03;21.50;99.90
10530;DHT22;5313;48.834;9.228;2023-06-24T07:13:28;21.80;99.90
10530;DHT22;5313;48.834;9.228;2023-06-24T07:15:54;22.00;99.90
10530;DHT22;5313;48.834;9.228;2023-06-24T07:18:19;21.80;99.90
10530;DHT22;5313;48.834;9.228;2023-06-24T07:20:46;22.10;99.90
10530;DHT22;5313;48.834;9.228;2023-06-24T07:23:11;22.00;99.90
10530;DHT22;5313;48.834;9.228;2023-06-24T07:25:37;22.10;99.90
10530;DHT22;5313;48.834;9.228;2023-06-24T07:28:03;22.10;99.90
10530;DHT22;5313;48.834;9.228;2023-06-24T07:30:28;22.10;99.90
10530;DHT22;5313;48.834;9.228;2023-06-24T07:32:54;22.20;99.90
10530;DHT22;5313;48.834;9.228;2023-06-24T07:35:19;22.10;99.90
10530;DHT22;5313;48.834;9.228;2023-06-24T07:37:45;22.30;99.90
10530;DHT22;5313;48.834;9.228;2023-06-24T07:40:11;22.60;99.90
10530;DHT22;5313;48.834;9.228;2023-06-24T07:42:36;22.50;99.90
10530;DHT22;5313;48.834;9.228;2023-06-24T07:45:02;22.40;99.90
10530;DHT22;5313;48.834;9.228;2023-06-24T07:47:28;22.50;99.90
10530;DHT22;5313;48.834;9.228;2023-06-24T07:49:53;22.70;99.90
10530;DHT22;5313;48.834;9.228;2023-06-24T07:52:19;22.80;99.90
10530;DHT22;5313;48.834;9.228;2023-06-24T07:54:44;22.80;99.90
10530;DHT22;5313;48.834;9.228;2023-06-24T07:57:10;22.80;99.90
10530;DHT22;5313;48.834;9.228;2023-06-24T07:59:35;22.90;99.90
10530;DHT22;5313;48.834;9.228;2023-06-24T08:02:01;23.00;99.90
10530;DHT22;5313;48.834;9.228;2023-06-24T08:04:26;23.20;99.90
10530;DHT22;5313;48.834;9.228;2023-06-24T08:06:52;23.10;99.90
10530;DHT22;5313;48.834;9.228;2023-06-24T08:09:17;23.20;99.90
10530;DHT22;5313;48.834;9.228;2023-06-24T08:11:43;23.40;99.90
10530;DHT22;5313;48.834;9.228;2023-06-24T08:14:09;23.50;99.90
10530;DHT22;5313;48.834;9.228;2023-06-24T08:16:34;23.50;99.90
10530;DHT22;5313;48.834;9.228;2023-06-24T08:19:00;23.40;99.90
10530;DHT22;5313;48.834;9.228;2023-06-24T08:21:25;23.40;99.90
10530;DHT22;5313;48.834;9.228;2023-06-24T08:23:51;23.50;99.90
10530;DHT22;5313;48.834;9.228;2023-06-24T08:26:17;23.50;99.90
10530;DHT22;5313;48.834;9.228;2023-06-24T08:28:42;23.40;99.90
10530;DHT22;5313;48.834;9.228;2023-06-24T08:31:08;23.50;99.90
10530;DHT22;5313;48.834;9.228;2023-06-24T08:33:33;23.70;99.90
10530;DHT22;5313;48.834;9.228;2023-06-24T08:35:59;23.80;99.90
10530;DHT22;5313;48.834;9.228;2023-06-24T08:38:25;23.90;99.90
10530;DHT22;5313;48.834;9.228;2023-06-24T08:40:50;23.90;99.90
10530;DHT22;5313;48.834;9.228;2023-06-24T08:43:16;24.10;99.90
10530;DHT22;5313;48.834;9.228;2023-06-24T08:45:42;24.20;99.90
10530;DHT22;5313;48.834;9.228;2023-06-24T08:48:07;24.10;99.90
10530;DHT22;5313;48.834;9.228;2023-06-24T08:50:40;24.20;99.90
10530;DHT22;5313;48.834;9.228;2023-06-24T08:53:08;24.20;99.90
10530;DHT22;5313;48.834;9.228;2023-06-24T08:55:40;24.30;99.90
10530;DHT22;5313;48.834;9.228;2023-06-24T08:58:07;24.20;99.90
10530;DHT22;5313;48.834;9.228;2023-06-24T09:00:34;24.30;99.90
10530;DHT22;5313;48.834;9.228;2023-06-24T09:03:00;24.40;99.90
10530;DHT22;5313;48.834;9.228;2023-06-24T09:05:25;24.30;99.90
10530;DHT22;5313;48.834;9.228;2023-06-24T09:07:51;24.40;99.90
10530;DHT22;5313;48.834;9.228;2023-06-24T09:12:55;24.50;99.90
10530;DHT22;5313;48.834;9.228;2023-06-24T09:15:21;24.60;99.90
10530;DHT22;5313;48.834;9.228;2023-06-24T09:17:46;24.60;99.90
10530;DHT22;5313;48.834;9.228;2023-06-24T09:20:12;24.60;98.40
10530;DHT22;5313;48.834;9.228;2023-06-24T09:22:40;24.60;99.90
10530;DHT22;5313;48.834;9.228;2023-06-24T09:25:07;24.70;97.20
10530;DHT22;5313;48.834;9.228;2023-06-24T09:27:32;24.60;96.10
10530;DHT22;5313;48.834;9.228;2023-06-24T09:29:58;24.70;98.20
10530;DHT22;5313;48.834;9.228;2023-06-24T09:32:29;24.60;95.50
10530;DHT22;5313;48.834;9.228;2023-06-24T09:34:55;24.50;94.40
10530;DHT22;5313;48.834;9.228;2023-06-24T09:37:22;24.70;96.80
10530;DHT22;5313;48.834;9.228;2023-06-24T09:39:48;24.70;96.50
10530;DHT22;5313;48.834;9.228;2023-06-24T09:42:14;24.80;97.40
10530;DHT22;5313;48.834;9.228;2023-06-24T09:44:40;24.50;97.10
10530;DHT22;5313;48.834;9.228;2023-06-24T09:47:06;23.40;97.80
10530;DHT22;5313;48.834;9.228;2023-06-24T09:49:31;25.10;95.80
10530;DHT22;5313;48.834;9.228;2023-06-24T09:51:58;25.10;97.20
10530;DHT22;5313;48.834;9.228;2023-06-24T09:54:26;25.00;95.90
10530;DHT22;5313;48.834;9.228;2023-06-24T09:56:53;24.90;95.10
10530;DHT22;5313;48.834;9.228;2023-06-24T09:59:20;24.70;95.00
10530;DHT22;5313;48.834;9.228;2023-06-24T10:01:46;24.90;94.30
10530;DHT22;5313;48.834;9.228;2023-06-24T10:04:16;25.00;95.80
10530;DHT22;5313;48.834;9.228;2023-06-24T10:06:42;25.30;93.00
10530;DHT22;5313;48.834;9.228;2023-06-24T10:09:08;25.30;90.70
10530;DHT22;5313;48.834;9.228;2023-06-24T10:11:34;25.70;90.00
10530;DHT22;5313;48.834;9.228;2023-06-24T10:13:59;26.10;89.60
10530;DHT22;5313;48.834;9.228;2023-06-24T10:16:25;26.30;87.70
10530;DHT22;5313;48.834;9.228;2023-06-24T10:18:51;26.50;85.80
10530;DHT22;5313;48.834;9.228;2023-06-24T10:21:17;26.30;85.50
10530;DHT22;5313;48.834;9.228;2023-06-24T10:23:50;26.70;83.60
10530;DHT22;5313;48.834;9.228;2023-06-24T10:26:28;26.90;83.30
10530;DHT22;5313;48.834;9.228;2023-06-24T10:34:32;26.20;72.30
10530;DHT22;5313;48.834;9.228;2023-06-24T10:37:03;26.30;79.00
10530;DHT22;5313;48.834;9.228;2023-06-24T10:39:40;26.50;78.60
10530;DHT22;5313;48.834;9.228;2023-06-24T10:47:35;27.50;72.40
10530;DHT22;5313;48.834;9.228;2023-06-24T10:50:00;27.10;70.40
10530;DHT22;5313;48.834;9.228;2023-06-24T10:52:26;26.70;72.00
10530;DHT22;5313;48.834;9.228;2023-06-24T10:54:53;26.20;78.40
10530;DHT22;5313;48.834;9.228;2023-06-24T10:57:24;26.80;75.70
10530;DHT22;5313;48.834;9.228;2023-06-24T10:59:50;26.90;71.90
10530;DHT22;5313;48.834;9.228;2023-06-24T11:02:17;27.10;75.00
10530;DHT22;5313;48.834;9.228;2023-06-24T11:04:47;27.10;74.50
10530;DHT22;5313;48.834;9.228;2023-06-24T11:07:13;27.40;72.70
10530;DHT22;5313;48.834;9.228;2023-06-24T11:09:47;28.00;69.00
10530;DHT22;5313;48.834;9.228;2023-06-24T11:12:13;28.10;66.40
10530;DHT22;5313;48.834;9.228;2023-06-24T11:14:39;28.50;66.60
10530;DHT22;5313;48.834;9.228;2023-06-24T11:17:05;28.10;68.20
10530;DHT22;5313;48.834;9.228;2023-06-24T11:19:31;27.90;68.70
10530;DHT22;5313;48.834;9.228;2023-06-24T11:22:01;28.00;70.50
10530;DHT22;5313;48.834;9.228;2023-06-24T11:24:29;27.80;72.50
10530;DHT22;5313;48.834;9.228;2023-06-24T11:26:55;28.30;71.00
10530;DHT22;5313;48.834;9.228;2023-06-24T11:29:24;28.60;66.60
10530;DHT22;5313;48.834;9.228;2023-06-24T11:31:53;28.30;65.80
10530;DHT22;5313;48.834;9.228;2023-06-24T11:34:19;28.00;66.20
10530;DHT22;5313;48.834;9.228;2023-06-24T11:36:45;28.70;66.70
10530;DHT22;5313;48.834;9.228;2023-06-24T11:39:21;28.40;67.50
10530;DHT22;5313;48.834;9.228;2023-06-24T11:41:47;28.40;63.10
10530;DHT22;5313;48.834;9.228;2023-06-24T11:44:13;28.20;62.80
10530;DHT22;5313;48.834;9.228;2023-06-24T11:46:38;28.00;66.00
10530;DHT22;5313;48.834;9.228;2023-06-24T11:49:08;28.40;65.50
10530;DHT22;5313;48.834;9.228;2023-06-24T11:51:35;28.50;66.30
10530;DHT22;5313;48.834;9.228;2023-06-24T11:54:03;29.00;64.20
10530;DHT22;5313;48.834;9.228;2023-06-24T11:56:35;29.50;61.40
10530;DHT22;5313;48.834;9.228;2023-06-24T11:59:04;29.70;61.00
10530;DHT22;5313;48.834;9.228;2023-06-24T12:01:31;29.60;58.40
10530;DHT22;5313;48.834;9.228;2023-06-24T12:03:57;29.50;59.90
10530;DHT22;5313;48.834;9.228;2023-06-24T12:06:24;29.70;58.60
10530;DHT22;5313;48.834;9.228;2023-06-24T12:08:50;29.50;61.20
10530;DHT22;5313;48.834;9.228;2023-06-24T12:11:15;29.20;63.20
10530;DHT22;5313;48.834;9.228;2023-06-24T12:13:41;29.40;59.50
10530;DHT22;5313;48.834;9.228;2023-06-24T12:16:06;30.00;57.90
10530;DHT22;5313;48.834;9.228;2023-06-24T12:18:32;30.10;58.80
10530;DHT22;5313;48.834;9.228;2023-06-24T12:20:57;29.60;59.20
10530;DHT22;5313;48.834;9.228;2023-06-24T12:23:22;30.00;61.60
10530;DHT22;5313;48.834;9.228;2023-06-24T12:25:48;29.90;59.80
10530;DHT22;5313;48.834;9.228;2023-06-24T12:28:13;29.70;57.60
10530;DHT22;5313;48.834;9.228;2023-06-24T12:30:39;29.50;56.80
10530;DHT22;5313;48.834;9.228;2023-06-24T12:33:04;29.40;56.80
10530;DHT22;5313;48.834;9.228;2023-06-24T12:35:33;29.60;57.70
10530;DHT22;5313;48.834;9.228;2023-06-24T12:37:59;29.40;57.20
10530;DHT22;5313;48.834;9.228;2023-06-24T12:40:24;29.60;58.10
10530;DHT22;5313;48.834;9.228;2023-06-24T12:42:50;29.90;57.10
10530;DHT22;5313;48.834;9.228;2023-06-24T12:45:15;30.10;56.10
10530;DHT22;5313;48.834;9.228;2023-06-24T12:47:41;30.60;55.10
10530;DHT22;5313;48.834;9.228;2023-06-24T12:50:07;30.30;53.90
10530;DHT22;5313;48.834;9.228;2023-06-24T12:52:34;30.70;54.00
10530;DHT22;5313;48.834;9.228;2023-06-24T12:54:59;31.20;53.60
10530;DHT22;5313;48.834;9.228;2023-06-24T12:57:25;31.20;52.20
10530;DHT22;5313;48.834;9.228;2023-06-24T12:59:50;31.60;52.00
10530;DHT22;5313;48.834;9.228;2023-06-24T13:02:16;31.40;53.20
10530;DHT22;5313;48.834;9.228;2023-06-24T13:04:41;31.00;52.30
10530;DHT22;5313;48.834;9.228;2023-06-24T13:07:07;31.10;54.40
10530;DHT22;5313;48.834;9.228;2023-06-24T13:09:34;30.70;53.80
10530;DHT22;5313;48.834;9.228;2023-06-24T13:12:00;30.30;52.50
10530;DHT22;5313;48.834;9.228;2023-06-24T13:14:25;29.90;52.40
10530;DHT22;5313;48.834;9.228;2023-06-24T13:16:53;30.20;52.30
10530;DHT22;5313;48.834;9.228;2023-06-24T13:19:19;30.50;54.00
10530;DHT22;5313;48.834;9.228;2023-06-24T13:21:45;30.70;52.30
10530;DHT22;5313;48.834;9.228;2023-06-24T13:24:10;30.20;52.00
10530;DHT22;5313;48.834;9.228;2023-06-24T13:26:38;30.20;51.20
10530;DHT22;5313;48.834;9.228;2023-06-24T13:29:03;31.20;50.10
10530;DHT22;5313;48.834;9.228;2023-06-24T13:31:29;30.80;50.50
10530;DHT22;5313;48.834;9.228;2023-06-24T13:33:54;30.60;50.20
10530;DHT22;5313;48.834;9.228;2023-06-24T13:36:36;31.50;49.90
10530;DHT22;5313;48.834;9.228;2023-06-24T13:39:07;32.40;48.70
10530;DHT22;5313;48.834;9.228;2023-06-24T13:41:33;31.80;49.40
10530;DHT22;5313;48.834;9.228;2023-06-24T13:44:02;31.20;50.00
10530;DHT22;5313;48.834;9.228;2023-06-24T13:46:29;31.60;49.90
10530;DHT22;5313;48.834;9.228;2023-06-24T13:48:56;30.90;51.00
10530;DHT22;5313;48.834;9.228;2023-06-24T13:51:22;31.20;50.40
10530;DHT22;5313;48.834;9.228;2023-06-24T13:53:50;32.20;48.70
10530;DHT22;5313;48.834;9.228;2023-06-24T13:56:20;32.90;47.80
10530;DHT22;5313;48.834;9.228;2023-06-24T13:58:46;32.90;47.70
10530;DHT22;5313;48.834;9.228;2023-06-24T14:01:11;32.30;47.30
10530;DHT22;5313;48.834;9.228;2023-06-24T14:03:37;30.80;49.00
10530;DHT22;5313;48.834;9.228;2023-06-24T14:06:03;30.60;49.30
10530;DHT22;5313;48.834;9.228;2023-06-24T14:08:30;30.40;50.10
10530;DHT22;5313;48.834;9.228;2023-06-24T14:10:57;30.60;49.70
10530;DHT22;5313;48.834;9.228;2023-06-24T14:13:23;30.50;50.00
10530;DHT22;5313;48.834;9.228;2023-06-24T14:15:48;29.90;50.10
10530;DHT22;5313;48.834;9.228;2023-06-24T14:18:14;30.90;50.80
10530;DHT22;5313;48.834;9.228;2023-06-24T14:20:39;30.60;49.80
10530;DHT22;5313;48.834;9.228;2023-06-24T14:23:05;30.50;50.10
10530;DHT22;5313;48.834;9.228;2023-06-24T14:25:31;30.20;50.70
10530;DHT22;5313;48.834;9.228;2023-06-24T14:27:56;30.40;50.60
10530;DHT22;5313;48.834;9.228;2023-06-24T14:30:22;31.00;49.70
10530;DHT22;5313;48.834;9.228;2023-06-24T14:32:47;30.20;50.30
10530;DHT22;5313;48.834;9.228;2023-06-24T14:35:13;30.20;51.30
10530;DHT22;5313;48.834;9.228;2023-06-24T14:37:39;31.10;49.20
10530;DHT22;5313;48.834;9.228;2023-06-24T14:40:05;30.70;50.00
10530;DHT22;5313;48.834;9.228;2023-06-24T14:42:31;30.50;50.20
10530;DHT22;5313;48.834;9.228;2023-06-24T14:44:57;30.70;49.90
10530;DHT22;5313;48.834;9.228;2023-06-24T14:47:22;30.40;49.20
10530;DHT22;5313;48.834;9.228;2023-06-24T14:49:48;30.10;50.20
10530;DHT22;5313;48.834;9.228;2023-06-24T14:52:13;30.20;50.50
10530;DHT22;5313;48.834;9.228;2023-06-24T14:54:39;30.80;50.50
10530;DHT22;5313;48.834;9.228;2023-06-24T14:57:04;30.70;49.70
10530;DHT22;5313;48.834;9.228;2023-06-24T14:59:30;30.80;50.20
10530;DHT22;5313;48.834;9.228;2023-06-24T15:01:55;30.60;50.20
10530;DHT22;5313;48.834;9.228;2023-06-24T15:04:21;30.70;50.60
10530;DHT22;5313;48.834;9.228;2023-06-24T15:06:46;30.40;50.00
10530;DHT22;5313;48.834;9.228;2023-06-24T15:09:12;29.60;50.90
10530;DHT22;5313;48.834;9.228;2023-06-24T15:11:37;30.80;50.10
10530;DHT22;5313;48.834;9.228;2023-06-24T15:14:03;30.90;50.60
10530;DHT22;5313;48.834;9.228;2023-06-24T15:16:28;30.60;49.90
10530;DHT22;5313;48.834;9.228;2023-06-24T15:18:54;30.00;50.30
10530;DHT22;5313;48.834;9.228;2023-06-24T15:21:19;31.50;49.90
10530;DHT22;5313;48.834;9.228;2023-06-24T15:23:46;31.50;49.60
10530;DHT22;5313;48.834;9.228;2023-06-24T15:26:12;30.70;49.50
10530;DHT22;5313;48.834;9.228;2023-06-24T15:28:37;30.30;49.50
10530;DHT22;5313;48.834;9.228;2023-06-24T15:31:03;30.30;50.30
10530;DHT22;5313;48.834;9.228;2023-06-24T15:33:28;30.20;50.50
10530;DHT22;5313;48.834;9.228;2023-06-24T15:35:54;30.70;50.40
10530;DHT22;5313;48.834;9.228;2023-06-24T15:38:20;30.50;50.50
10530;DHT22;5313;48.834;9.228;2023-06-24T15:40:46;30.50;50.70
10530;DHT22;5313;48.834;9.228;2023-06-24T15:43:12;30.40;51.10
10530;DHT22;5313;48.834;9.228;2023-06-24T15:45:38;30.60;50.10
10530;DHT22;5313;48.834;9.228;2023-06-24T15:48:04;29.90;50.70
10530;DHT22;5313;48.834;9.228;2023-06-24T15:50:30;29.70;50.80
10530;DHT22;5313;48.834;9.228;2023-06-24T15:52:56;29.80;51.50
10530;DHT22;5313;48.834;9.228;2023-06-24T15:55:21;29.50;51.40
10530;DHT22;5313;48.834;9.228;2023-06-24T15:57:47;29.60;51.40
10530;DHT22;5313;48.834;9.228;2023-06-24T16:00:13;29.40;50.90